Terminal Aerodrome Forecast
Issued by NWS

Home | Current Version | Previous Version | Text Only | Print | Product List | Glossary On
Versions: 1 2 3 4 5 6 7 8 9 10 11 12 13 14 15 16 17 18 19 20 21 22 23 24 25 26 27
000
FTUS46 KPDT 301700
TAFALW
TAF
KALW 301739Z 3018/3118 22004KT P6SM OVC012
      TEMPO 3018/3020 5SM BR
     FM302000 24004KT P6SM OVC015
     FM302300 VRB03KT P6SM OVC011
     FM310400 13004KT 3SM BR OVC007
     FM311600 20003KT 5SM BR OVC011=

USA.gov is the U.S. government's official web portal to all federal, state and local government web resources and services.